sensor_id;sensor_type;location;lat;lon;timestamp;pressure;altitude;pressure_sealevel;temperature;humidity
50105;BME280;47690;39.202;-77.198;2023-03-23T00:01:14;100545.03;;;41.01;3.60
50105;BME280;47690;39.202;-77.198;2023-03-23T00:03:49;100552.69;;;41.04;3.81
50105;BME280;47690;39.202;-77.198;2023-03-23T00:06:19;100573.91;;;41.01;3.56
50105;BME280;47690;39.202;-77.198;2023-03-23T00:08:49;100576.56;;;41.84;3.47
50105;BME280;47690;39.202;-77.198;2023-03-23T00:11:21;100563.28;;;41.06;3.83
50105;BME280;47690;39.202;-77.198;2023-03-23T00:13:50;100568.72;;;40.99;4.02
50105;BME280;47690;39.202;-77.198;2023-03-23T00:16:23;100569.75;;;41.56;3.40
50105;BME280;47690;39.202;-77.198;2023-03-23T00:19:05;100564.03;;;41.71;3.57
50105;BME280;47690;39.202;-77.198;2023-03-23T00:21:35;100563.47;;;41.36;3.47
50105;BME280;47690;39.202;-77.198;2023-03-23T00:24:10;100565.88;;;42.14;3.44
50105;BME280;47690;39.202;-77.198;2023-03-23T00:26:40;100558.72;;;42.20;3.15
50105;BME280;47690;39.202;-77.198;2023-03-23T00:29:18;100546.75;;;42.09;2.97
50105;BME280;47690;39.202;-77.198;2023-03-23T00:31:50;100551.03;;;41.98;3.14
50105;BME280;47690;39.202;-77.198;2023-03-23T00:34:20;100554.38;;;42.19;3.33
50105;BME280;47690;39.202;-77.198;2023-03-23T00:36:54;100539.19;;;41.81;3.69
50105;BME280;47690;39.202;-77.198;2023-03-23T00:39:30;100532.66;;;41.63;3.51
50105;BME280;47690;39.202;-77.198;2023-03-23T00:42:00;100549.25;;;41.48;3.84
50105;BME280;47690;39.202;-77.198;2023-03-23T00:44:34;100559.00;;;41.49;3.70
50105;BME280;47690;39.202;-77.198;2023-03-23T00:47:05;100553.50;;;41.37;3.41
50105;BME280;47690;39.202;-77.198;2023-03-23T00:49:32;100546.75;;;41.21;3.98
50105;BME280;47690;39.202;-77.198;2023-03-23T00:52:03;100555.31;;;41.18;3.61
50105;BME280;47690;39.202;-77.198;2023-03-23T00:54:32;100562.25;;;41.07;3.63
50105;BME280;47690;39.202;-77.198;2023-03-23T00:57:01;100574.38;;;40.97;3.83
50105;BME280;47690;39.202;-77.198;2023-03-23T00:59:29;100574.38;;;40.97;4.15
50105;BME280;47690;39.202;-77.198;2023-03-23T01:01:56;100571.28;;;40.94;4.02
50105;BME280;47690;39.202;-77.198;2023-03-23T01:04:24;100557.13;;;40.92;3.73
50105;BME280;47690;39.202;-77.198;2023-03-23T01:06:56;100564.91;;;40.81;4.36
50105;BME280;47690;39.202;-77.198;2023-03-23T01:09:26;100567.19;;;40.71;3.88
50105;BME280;47690;39.202;-77.198;2023-03-23T01:11:56;100570.69;;;40.85;3.92
50105;BME280;47690;39.202;-77.198;2023-03-23T01:14:23;100561.19;;;40.76;3.90
50105;BME280;47690;39.202;-77.198;2023-03-23T01:16:54;100559.50;;;40.81;4.28
50105;BME280;47690;39.202;-77.198;2023-03-23T01:19:26;100561.63;;;40.13;4.51
50105;BME280;47690;39.202;-77.198;2023-03-23T01:22:00;100570.31;;;40.36;4.14
50105;BME280;47690;39.202;-77.198;2023-03-23T01:24:29;100562.72;;;39.79;4.78
50105;BME280;47690;39.202;-77.198;2023-03-23T01:26:59;100564.94;;;40.22;4.28
50105;BME280;47690;39.202;-77.198;2023-03-23T01:29:33;100581.59;;;39.99;4.25
50105;BME280;47690;39.202;-77.198;2023-03-23T01:32:02;100587.19;;;39.77;4.52
50105;BME280;47690;39.202;-77.198;2023-03-23T01:34:30;100596.75;;;39.73;4.40
50105;BME280;47690;39.202;-77.198;2023-03-23T01:37:01;100593.63;;;39.76;4.53
50105;BME280;47690;39.202;-77.198;2023-03-23T01:39:30;100602.31;;;39.78;4.91
50105;BME280;47690;39.202;-77.198;2023-03-23T01:41:59;100599.25;;;39.95;4.84
50105;BME280;47690;39.202;-77.198;2023-03-23T01:47:08;100584.84;;;40.21;4.24
50105;BME280;47690;39.202;-77.198;2023-03-23T01:49:41;100579.72;;;39.93;4.85
50105;BME280;47690;39.202;-77.198;2023-03-23T01:52:20;100578.88;;;40.06;5.00
50105;BME280;47690;39.202;-77.198;2023-03-23T01:54:55;100584.47;;;39.97;4.79
50105;BME280;47690;39.202;-77.198;2023-03-23T01:57:26;100581.19;;;39.88;4.79
50105;BME280;47690;39.202;-77.198;2023-03-23T02:00:03;100576.41;;;39.84;4.78
50105;BME280;47690;39.202;-77.198;2023-03-23T02:02:47;100571.44;;;39.87;4.98
50105;BME280;47690;39.202;-77.198;2023-03-23T02:05:32;100570.78;;;39.99;4.87
50105;BME280;47690;39.202;-77.198;2023-03-23T02:08:09;100572.06;;;39.90;4.72
50105;BME280;47690;39.202;-77.198;2023-03-23T02:10:37;100585.53;;;39.76;4.95
50105;BME280;47690;39.202;-77.198;2023-03-23T02:13:07;100592.41;;;39.65;4.98
50105;BME280;47690;39.202;-77.198;2023-03-23T02:33:28;100540.13;;;39.86;5.21
50105;BME280;47690;39.202;-77.198;2023-03-23T02:39:08;100550.91;;;39.93;4.97
50105;BME280;47690;39.202;-77.198;2023-03-23T02:41:44;100554.28;;;40.41;4.97
50105;BME280;47690;39.202;-77.198;2023-03-23T02:44:13;100552.84;;;40.77;4.73
50105;BME280;47690;39.202;-77.198;2023-03-23T02:46:42;100553.94;;;40.69;4.77
50105;BME280;47690;39.202;-77.198;2023-03-23T02:49:13;100558.34;;;39.98;5.14
50105;BME280;47690;39.202;-77.198;2023-03-23T02:51:45;100567.19;;;40.25;4.88
50105;BME280;47690;39.202;-77.198;2023-03-23T02:54:15;100552.81;;;39.52;5.53
50105;BME280;47690;39.202;-77.198;2023-03-23T02:56:45;100545.56;;;39.46;5.38
50105;BME280;47690;39.202;-77.198;2023-03-23T02:59:22;100548.88;;;39.48;5.34
50105;BME280;47690;39.202;-77.198;2023-03-23T03:10:54;100528.69;;;39.84;5.59
50105;BME280;47690;39.202;-77.198;2023-03-23T03:13:25;100531.41;;;39.71;5.59
50105;BME280;47690;39.202;-77.198;2023-03-23T03:16:43;100548.63;;;39.77;5.45
50105;BME280;47690;39.202;-77.198;2023-03-23T03:19:06;100551.09;;;39.78;5.39
50105;BME280;47690;39.202;-77.198;2023-03-23T03:21:42;100551.50;;;39.88;5.62
50105;BME280;47690;39.202;-77.198;2023-03-23T03:24:15;100553.47;;;40.40;5.22
50105;BME280;47690;39.202;-77.198;2023-03-23T03:26:50;100559.00;;;39.86;5.49
50105;BME280;47690;39.202;-77.198;2023-03-23T03:29:30;100559.00;;;39.80;5.82
50105;BME280;47690;39.202;-77.198;2023-03-23T03:32:03;100561.47;;;39.81;5.45
50105;BME280;47690;39.202;-77.198;2023-03-23T03:34:34;100557.31;;;39.85;5.48
50105;BME280;47690;39.202;-77.198;2023-03-23T03:37:04;100568.78;;;39.54;5.83
50105;BME280;47690;39.202;-77.198;2023-03-23T03:39:36;100562.94;;;39.43;5.72
50105;BME280;47690;39.202;-77.198;2023-03-23T03:42:06;100570.63;;;39.33;5.81
50105;BME280;47690;39.202;-77.198;2023-03-23T03:44:35;100568.97;;;39.32;5.59
50105;BME280;47690;39.202;-77.198;2023-03-23T03:47:06;100565.22;;;39.33;5.86
50105;BME280;47690;39.202;-77.198;2023-03-23T03:49:34;100561.50;;;39.34;5.82
50105;BME280;47690;39.202;-77.198;2023-03-23T03:52:05;100572.50;;;39.46;5.98
50105;BME280;47690;39.202;-77.198;2023-03-23T03:54:39;100579.97;;;40.96;5.53
50105;BME280;47690;39.202;-77.198;2023-03-23T03:57:07;100590.66;;;40.25;5.78
50105;BME280;47690;39.202;-77.198;2023-03-23T03:59:36;100585.50;;;40.10;5.88
50105;BME280;47690;39.202;-77.198;2023-03-23T04:02:21;100574.72;;;40.10;5.50
50105;BME280;47690;39.202;-77.198;2023-03-23T04:04:50;100577.47;;;39.90;5.74
50105;BME280;47690;39.202;-77.198;2023-03-23T04:07:19;100575.38;;;39.78;5.97
50105;BME280;47690;39.202;-77.198;2023-03-23T04:09:48;100585.97;;;39.73;6.10
50105;BME280;47690;39.202;-77.198;2023-03-23T04:12:20;100590.91;;;40.03;5.80
50105;BME280;47690;39.202;-77.198;2023-03-23T04:14:58;100590.50;;;39.99;5.74
50105;BME280;47690;39.202;-77.198;2023-03-23T04:17:32;100579.38;;;41.51;5.71
50105;BME280;47690;39.202;-77.198;2023-03-23T04:20:02;100582.47;;;40.52;6.07
50105;BME280;47690;39.202;-77.198;2023-03-23T04:22:36;100570.81;;;39.79;5.85
50105;BME280;47690;39.202;-77.198;2023-03-23T04:25:05;100565.63;;;39.64;6.05
50105;BME280;47690;39.202;-77.198;2023-03-23T04:27:37;100564.22;;;39.61;6.17
50105;BME280;47690;39.202;-77.198;2023-03-23T04:30:07;100565.47;;;39.58;6.20
50105;BME280;47690;39.202;-77.198;2023-03-23T04:32:50;100566.69;;;39.63;6.46
50105;BME280;47690;39.202;-77.198;2023-03-23T04:35:23;100566.88;;;39.74;6.71
50105;BME280;47690;39.202;-77.198;2023-03-23T04:38:30;100563.34;;;39.87;6.66
50105;BME280;47690;39.202;-77.198;2023-03-23T04:41:06;100566.25;;;39.86;6.64
50105;BME280;47690;39.202;-77.198;2023-03-23T04:43:46;100564.81;;;39.70;6.64
50105;BME280;47690;39.202;-77.198;2023-03-23T04:46:26;100562.94;;;39.70;6.50
50105;BME280;47690;39.202;-77.198;2023-03-23T04:49:00;100579.50;;;39.81;6.72
50105;BME280;47690;39.202;-77.198;2023-03-23T04:51:32;100563.56;;;39.72;6.65
50105;BME280;47690;39.202;-77.198;2023-03-23T04:54:11;100554.94;;;40.23;6.21
50105;BME280;47690;39.202;-77.198;2023-03-23T04:56:42;100535.66;;;40.72;5.85
50105;BME280;47690;39.202;-77.198;2023-03-23T04:59:14;100537.28;;;40.73;6.10
50105;BME280;47690;39.202;-77.198;2023-03-23T05:02:04;100522.09;;;40.85;6.11
50105;BME280;47690;39.202;-77.198;2023-03-23T05:04:34;100519.78;;;40.89;6.46
50105;BME280;47690;39.202;-77.198;2023-03-23T05:07:22;100512.50;;;40.89;6.03
50105;BME280;47690;39.202;-77.198;2023-03-23T05:09:55;100521.09;;;40.79;6.14
50105;BME280;47690;39.202;-77.198;2023-03-23T05:12:31;100514.31;;;40.95;6.17
50105;BME280;47690;39.202;-77.198;2023-03-23T05:15:02;100516.75;;;41.04;6.05
50105;BME280;47690;39.202;-77.198;2023-03-23T05:17:32;100516.34;;;41.00;6.26
50105;BME280;47690;39.202;-77.198;2023-03-23T05:20:04;100535.84;;;40.24;6.41
50105;BME280;47690;39.202;-77.198;2023-03-23T05:22:46;100524.84;;;40.39;6.52
50105;BME280;47690;39.202;-77.198;2023-03-23T05:25:27;100518.34;;;39.81;6.88
50105;BME280;47690;39.202;-77.198;2023-03-23T05:28:01;100530.97;;;39.81;7.06
50105;BME280;47690;39.202;-77.198;2023-03-23T05:30:49;100529.75;;;39.97;7.00
50105;BME280;47690;39.202;-77.198;2023-03-23T05:33:18;100527.91;;;39.70;7.17
50105;BME280;47690;39.202;-77.198;2023-03-23T05:35:51;100531.00;;;39.67;6.88
50105;BME280;47690;39.202;-77.198;2023-03-23T05:38:25;100530.19;;;39.80;7.27
50105;BME280;47690;39.202;-77.198;2023-03-23T05:40:59;100523.34;;;39.91;7.06
50105;BME280;47690;39.202;-77.198;2023-03-23T05:43:36;100517.75;;;40.45;6.95
50105;BME280;47690;39.202;-77.198;2023-03-23T05:46:19;100517.88;;;40.05;6.70
50105;BME280;47690;39.202;-77.198;2023-03-23T05:48:49;100504.66;;;39.83;7.13
50105;BME280;47690;39.202;-77.198;2023-03-23T05:51:21;100495.13;;;39.80;6.94
50105;BME280;47690;39.202;-77.198;2023-03-23T05:53:50;100493.66;;;39.84;7.41
50105;BME280;47690;39.202;-77.198;2023-03-23T05:56:18;100499.88;;;39.85;7.12
50105;BME280;47690;39.202;-77.198;2023-03-23T05:59:26;100494.00;;;40.08;7.19
50105;BME280;47690;39.202;-77.198;2023-03-23T06:01:56;100498.00;;;39.99;6.74
50105;BME280;47690;39.202;-77.198;2023-03-23T06:04:26;100491.31;;;40.08;7.01
50105;BME280;47690;39.202;-77.198;2023-03-23T06:07:26;100474.09;;;40.09;7.25
50105;BME280;47690;39.202;-77.198;2023-03-23T06:10:05;100459.22;;;40.71;6.96
50105;BME280;47690;39.202;-77.198;2023-03-23T06:12:43;100454.84;;;39.99;7.13
50105;BME280;47690;39.202;-77.198;2023-03-23T06:15:17;100443.41;;;40.04;6.55
50105;BME280;47690;39.202;-77.198;2023-03-23T06:18:11;100443.25;;;39.98;7.38
50105;BME280;47690;39.202;-77.198;2023-03-23T06:21:01;100445.94;;;39.92;7.07
50105;BME280;47690;39.202;-77.198;2023-03-23T06:23:46;100439.31;;;39.87;7.27
50105;BME280;47690;39.202;-77.198;2023-03-23T06:26:18;100440.31;;;40.00;7.25
50105;BME280;47690;39.202;-77.198;2023-03-23T06:28:53;100421.75;;;39.71;7.51
50105;BME280;47690;39.202;-77.198;2023-03-23T06:31:21;100421.56;;;40.51;7.07
50105;BME280;47690;39.202;-77.198;2023-03-23T06:33:50;100424.03;;;40.20;7.23
50105;BME280;47690;39.202;-77.198;2023-03-23T06:36:25;100418.41;;;39.83;7.45
50105;BME280;47690;39.202;-77.198;2023-03-23T06:39:10;100417.28;;;40.04;7.00
50105;BME280;47690;39.202;-77.198;2023-03-23T06:42:09;100403.00;;;39.97;7.50
50105;BME280;47690;39.202;-77.198;2023-03-23T06:44:45;100404.91;;;40.61;7.00
50105;BME280;47690;39.202;-77.198;2023-03-23T06:47:14;100389.75;;;39.88;7.44
50105;BME280;47690;39.202;-77.198;2023-03-23T06:49:45;100388.53;;;39.78;7.62
50105;BME280;47690;39.202;-77.198;2023-03-23T06:52:19;100369.41;;;39.93;7.76
50105;BME280;47690;39.202;-77.198;2023-03-23T06:54:49;100361.13;;;40.59;7.12
50105;BME280;47690;39.202;-77.198;2023-03-23T06:57:19;100362.16;;;39.93;7.27
50105;BME280;47690;39.202;-77.198;2023-03-23T06:59:50;100347.13;;;39.65;7.79
50105;BME280;47690;39.202;-77.198;2023-03-23T07:02:17;100328.56;;;39.50;7.88
50105;BME280;47690;39.202;-77.198;2023-03-23T07:04:49;100338.09;;;39.46;7.81
50105;BME280;47690;39.202;-77.198;2023-03-23T07:07:21;100372.06;;;39.47;7.94
50105;BME280;47690;39.202;-77.198;2023-03-23T07:09:56;100371.03;;;39.48;7.96
50105;BME280;47690;39.202;-77.198;2023-03-23T07:12:26;100358.59;;;39.47;7.90
50105;BME280;47690;39.202;-77.198;2023-03-23T07:14:55;100349.81;;;40.11;7.23
50105;BME280;47690;39.202;-77.198;2023-03-23T07:17:25;100338.88;;;39.53;7.66
50105;BME280;47690;39.202;-77.198;2023-03-23T07:20:17;100320.56;;;39.69;7.84
50105;BME280;47690;39.202;-77.198;2023-03-23T07:22:45;100324.97;;;39.63;7.80
50105;BME280;47690;39.202;-77.198;2023-03-23T07:25:24;100318.91;;;39.68;7.73
50105;BME280;47690;39.202;-77.198;2023-03-23T07:27:55;100307.34;;;39.60;8.08
50105;BME280;47690;39.202;-77.198;2023-03-23T07:30:23;100319.78;;;39.61;7.90
50105;BME280;47690;39.202;-77.198;2023-03-23T07:32:51;100327.13;;;40.51;7.42
50105;BME280;47690;39.202;-77.198;2023-03-23T07:35:20;100323.13;;;39.57;7.84
50105;BME280;47690;39.202;-77.198;2023-03-23T07:37:59;100329.56;;;39.42;8.20
50105;BME280;47690;39.202;-77.198;2023-03-23T07:40:30;100335.84;;;39.29;8.37
50105;BME280;47690;39.202;-77.198;2023-03-23T07:43:07;100338.78;;;39.21;8.25
50105;BME280;47690;39.202;-77.198;2023-03-23T07:45:56;100370.44;;;39.19;8.17
50105;BME280;47690;39.202;-77.198;2023-03-23T07:48:30;100365.53;;;39.09;8.42
50105;BME280;47690;39.202;-77.198;2023-03-23T07:50:59;100341.91;;;39.04;8.39
50105;BME280;47690;39.202;-77.198;2023-03-23T07:53:30;100318.28;;;39.13;8.40
50105;BME280;47690;39.202;-77.198;2023-03-23T07:56:11;100319.50;;;39.17;8.46
50105;BME280;47690;39.202;-77.198;2023-03-23T07:59:11;100324.25;;;39.22;8.38
50105;BME280;47690;39.202;-77.198;2023-03-23T08:01:42;100313.31;;;39.03;8.45
50105;BME280;47690;39.202;-77.198;2023-03-23T08:04:31;100318.50;;;39.05;8.38
50105;BME280;47690;39.202;-77.198;2023-03-23T08:07:26;100303.75;;;39.21;8.13
50105;BME280;47690;39.202;-77.198;2023-03-23T08:10:16;100285.06;;;39.26;8.51
50105;BME280;47690;39.202;-77.198;2023-03-23T08:13:05;100292.81;;;38.96;8.65
50105;BME280;47690;39.202;-77.198;2023-03-23T08:15:52;100292.63;;;38.84;8.63
50105;BME280;47690;39.202;-77.198;2023-03-23T08:18:55;100288.28;;;38.89;8.75
50105;BME280;47690;39.202;-77.198;2023-03-23T08:21:37;100288.91;;;38.85;8.78
50105;BME280;47690;39.202;-77.198;2023-03-23T08:24:38;100292.19;;;38.93;8.85
50105;BME280;47690;39.202;-77.198;2023-03-23T08:27:26;100288.06;;;38.84;8.87
50105;BME280;47690;39.202;-77.198;2023-03-23T08:30:16;100262.38;;;39.61;8.48
50105;BME280;47690;39.202;-77.198;2023-03-23T08:32:59;100259.91;;;38.87;9.10
50105;BME280;47690;39.202;-77.198;2023-03-23T08:35:57;100256.38;;;38.86;9.32
50105;BME280;47690;39.202;-77.198;2023-03-23T08:38:51;100266.75;;;38.89;8.85
50105;BME280;47690;39.202;-77.198;2023-03-23T08:41:23;100251.22;;;38.78;8.99
50105;BME280;47690;39.202;-77.198;2023-03-23T08:44:04;100252.44;;;39.02;8.77
50105;BME280;47690;39.202;-77.198;2023-03-23T08:46:48;100225.97;;;38.86;8.97
50105;BME280;47690;39.202;-77.198;2023-03-23T08:49:26;100253.47;;;38.88;9.19
50105;BME280;47690;39.202;-77.198;2023-03-23T08:52:15;100237.53;;;38.86;9.01
50105;BME280;47690;39.202;-77.198;2023-03-23T08:54:52;100230.94;;;38.82;8.97
50105;BME280;47690;39.202;-77.198;2023-03-23T08:57:32;100228.81;;;39.04;9.08
50105;BME280;47690;39.202;-77.198;2023-03-23T09:00:20;100241.84;;;39.07;9.02
50105;BME280;47690;39.202;-77.198;2023-03-23T09:03:09;100259.63;;;39.68;8.41
50105;BME280;47690;39.202;-77.198;2023-03-23T09:05:59;100233.13;;;39.65;8.83
50105;BME280;47690;39.202;-77.198;2023-03-23T09:08:37;100237.00;;;39.69;8.45
50105;BME280;47690;39.202;-77.198;2023-03-23T09:11:07;100242.31;;;39.50;9.06
50105;BME280;47690;39.202;-77.198;2023-03-23T09:13:38;100241.09;;;39.78;8.96
50105;BME280;47690;39.202;-77.198;2023-03-23T09:16:09;100246.63;;;39.05;9.20
50105;BME280;47690;39.202;-77.198;2023-03-23T09:18:37;100243.31;;;39.03;9.07
50105;BME280;47690;39.202;-77.198;2023-03-23T09:21:05;100237.31;;;38.94;9.15
50105;BME280;47690;39.202;-77.198;2023-03-23T09:23:34;100210.63;;;38.86;9.24
50105;BME280;47690;39.202;-77.198;2023-03-23T09:26:03;100213.75;;;38.83;9.36
50105;BME280;47690;39.202;-77.198;2023-03-23T09:28:31;100214.97;;;38.80;9.32
50105;BME280;47690;39.202;-77.198;2023-03-23T09:31:01;100231.53;;;38.84;9.51
50105;BME280;47690;39.202;-77.198;2023-03-23T09:33:30;100217.81;;;39.13;9.71
50105;BME280;47690;39.202;-77.198;2023-03-23T09:36:00;100196.75;;;38.89;9.28
50105;BME280;47690;39.202;-77.198;2023-03-23T09:38:30;100215.63;;;39.35;9.24
50105;BME280;47690;39.202;-77.198;2023-03-23T09:41:28;100203.75;;;39.04;9.42
50105;BME280;47690;39.202;-77.198;2023-03-23T09:47:20;100212.16;;;39.99;8.91
50105;BME280;47690;39.202;-77.198;2023-03-23T09:50:15;100235.44;;;40.44;9.56
50105;BME280;47690;39.202;-77.198;2023-03-23T09:52:48;100225.25;;;39.95;9.24
50105;BME280;47690;39.202;-77.198;2023-03-23T09:55:20;100226.22;;;39.30;9.38
50105;BME280;47690;39.202;-77.198;2023-03-23T09:57:59;100220.97;;;39.81;9.62
50105;BME280;47690;39.202;-77.198;2023-03-23T10:00:37;100212.63;;;39.57;9.21
50105;BME280;47690;39.202;-77.198;2023-03-23T10:03:14;100203.56;;;39.44;9.93
50105;BME280;47690;39.202;-77.198;2023-03-23T10:05:47;100204.22;;;39.46;9.62
50105;BME280;47690;39.202;-77.198;2023-03-23T10:08:43;100185.94;;;40.06;9.57
50105;BME280;47690;39.202;-77.198;2023-03-23T10:11:23;100183.63;;;40.10;9.10
50105;BME280;47690;39.202;-77.198;2023-03-23T10:20:03;100201.63;;;40.16;9.69
50105;BME280;47690;39.202;-77.198;2023-03-23T10:23:35;100198.22;;;40.27;9.34
50105;BME280;47690;39.202;-77.198;2023-03-23T10:25:34;100190.75;;;40.04;9.37
50105;BME280;47690;39.202;-77.198;2023-03-23T10:28:13;100190.91;;;39.77;10.09
50105;BME280;47690;39.202;-77.198;2023-03-23T10:30:48;100181.16;;;39.83;9.70
50105;BME280;47690;39.202;-77.198;2023-03-23T10:33:39;100181.53;;;40.37;9.52
50105;BME280;47690;39.202;-77.198;2023-03-23T10:39:03;100206.19;;;39.90;9.53
50105;BME280;47690;39.202;-77.198;2023-03-23T10:41:44;100198.22;;;39.70;9.41
50105;BME280;47690;39.202;-77.198;2023-03-23T10:44:17;100201.19;;;39.61;9.99
50105;BME280;47690;39.202;-77.198;2023-03-23T10:46:56;100198.16;;;39.51;9.67
50105;BME280;47690;39.202;-77.198;2023-03-23T10:49:49;100191.38;;;39.74;10.14
50105;BME280;47690;39.202;-77.198;2023-03-23T10:57:42;100200.59;;;39.59;9.69
50105;BME280;47690;39.202;-77.198;2023-03-23T11:02:57;100173.13;;;39.44;10.07
50105;BME280;47690;39.202;-77.198;2023-03-23T11:08:02;100173.44;;;39.86;9.57
50105;BME280;47690;39.202;-77.198;2023-03-23T11:13:27;100143.56;;;39.88;9.43
50105;BME280;47690;39.202;-77.198;2023-03-23T11:15:57;100151.31;;;39.78;9.89
50105;BME280;47690;39.202;-77.198;2023-03-23T11:18:37;100138.63;;;40.10;9.50
50105;BME280;47690;39.202;-77.198;2023-03-23T11:21:13;100139.00;;;39.88;9.78
50105;BME280;47690;39.202;-77.198;2023-03-23T11:23:55;100132.75;;;39.95;9.67
50105;BME280;47690;39.202;-77.198;2023-03-23T11:27:10;100127.78;;;39.92;9.65
50105;BME280;47690;39.202;-77.198;2023-03-23T11:29:57;100129.22;;;39.94;9.92
50105;BME280;47690;39.202;-77.198;2023-03-23T11:32:30;100108.63;;;40.00;9.41
50105;BME280;47690;39.202;-77.198;2023-03-23T11:35:01;100122.56;;;39.97;9.56
50105;BME280;47690;39.202;-77.198;2023-03-23T11:37:49;100131.25;;;39.99;9.89
50105;BME280;47690;39.202;-77.198;2023-03-23T11:40:25;100103.78;;;40.09;9.59
50105;BME280;47690;39.202;-77.198;2023-03-23T11:43:37;100124.09;;;40.11;9.69
50105;BME280;47690;39.202;-77.198;2023-03-23T11:46:18;100114.81;;;40.45;10.02
50105;BME280;47690;39.202;-77.198;2023-03-23T11:49:02;100122.53;;;40.41;10.01
50105;BME280;47690;39.202;-77.198;2023-03-23T11:51:45;100113.91;;;40.32;10.04
50105;BME280;47690;39.202;-77.198;2023-03-23T11:54:29;100117.69;;;40.50;10.18
50105;BME280;47690;39.202;-77.198;2023-03-23T11:56:59;100104.41;;;40.67;9.11
50105;BME280;47690;39.202;-77.198;2023-03-23T11:59:32;100118.34;;;41.13;9.33
50105;BME280;47690;39.202;-77.198;2023-03-23T12:08:14;100109.72;;;40.18;10.10
50105;BME280;47690;39.202;-77.198;2023-03-23T12:20:13;100142.53;;;40.33;10.22
50105;BME280;47690;39.202;-77.198;2023-03-23T12:28:47;100134.09;;;40.86;9.89
50105;BME280;47690;39.202;-77.198;2023-03-23T12:31:33;100126.56;;;41.18;9.62
50105;BME280;47690;39.202;-77.198;2023-03-23T12:34:53;100115.78;;;40.69;9.49
50105;BME280;47690;39.202;-77.198;2023-03-23T12:48:42;100143.06;;;40.23;10.13
50105;BME280;47690;39.202;-77.198;2023-03-23T12:54:03;100113.59;;;40.22;9.89
50105;BME280;47690;39.202;-77.198;2023-03-23T12:59:40;100124.22;;;40.42;10.62
50105;BME280;47690;39.202;-77.198;2023-03-23T13:04:50;100086.56;;;40.28;9.94
50105;BME280;47690;39.202;-77.198;2023-03-23T13:07:28;100105.34;;;40.42;10.55
50105;BME280;47690;39.202;-77.198;2023-03-23T13:10:27;100099.34;;;40.89;10.12
50105;BME280;47690;39.202;-77.198;2023-03-23T13:12:59;100116.03;;;40.49;9.73
50105;BME280;47690;39.202;-77.198;2023-03-23T13:15:51;100106.78;;;40.56;10.28
50105;BME280;47690;39.202;-77.198;2023-03-23T13:18:58;100090.22;;;40.72;10.16
50105;BME280;47690;39.202;-77.198;2023-03-23T13:21:30;100096.09;;;40.99;9.56
50105;BME280;47690;39.202;-77.198;2023-03-23T13:24:05;100090.75;;;40.80;10.30
50105;BME280;47690;39.202;-77.198;2023-03-23T13:26:39;100087.53;;;40.90;9.77
50105;BME280;47690;39.202;-77.198;2023-03-23T13:29:13;100088.22;;;40.67;10.29
50105;BME280;47690;39.202;-77.198;2023-03-23T13:31:42;100086.03;;;40.57;9.75
50105;BME280;47690;39.202;-77.198;2023-03-23T13:36:58;100078.38;;;40.73;10.64
50105;BME280;47690;39.202;-77.198;2023-03-23T13:42:49;100053.63;;;41.18;9.91
50105;BME280;47690;39.202;-77.198;2023-03-23T13:48:17;100072.88;;;41.10;10.10
50105;BME280;47690;39.202;-77.198;2023-03-23T13:53:14;100073.34;;;41.49;9.90
50105;BME280;47690;39.202;-77.198;2023-03-23T13:55:49;100033.34;;;41.16;9.99
50105;BME280;47690;39.202;-77.198;2023-03-23T13:58:45;100028.22;;;41.50;10.45
50105;BME280;47690;39.202;-77.198;2023-03-23T14:01:14;100031.28;;;42.54;9.78
50105;BME280;47690;39.202;-77.198;2023-03-23T14:03:49;100046.19;;;41.56;10.09
50105;BME280;47690;39.202;-77.198;2023-03-23T14:06:23;100041.84;;;41.91;9.79
50105;BME280;47690;39.202;-77.198;2023-03-23T14:09:07;100057.25;;;42.14;9.44
50105;BME280;47690;39.202;-77.198;2023-03-23T14:11:59;100051.31;;;42.29;9.64
50105;BME280;47690;39.202;-77.198;2023-03-23T14:14:45;100039.47;;;42.30;9.63
50105;BME280;47690;39.202;-77.198;2023-03-23T14:17:22;100028.09;;;41.92;9.99
50105;BME280;47690;39.202;-77.198;2023-03-23T14:19:59;100025.75;;;41.84;10.14
50105;BME280;47690;39.202;-77.198;2023-03-23T14:22:40;100025.53;;;41.86;9.44
50105;BME280;47690;39.202;-77.198;2023-03-23T14:25:15;100019.75;;;41.94;9.76
50105;BME280;47690;39.202;-77.198;2023-03-23T14:27:45;100022.88;;;42.03;9.75
50105;BME280;47690;39.202;-77.198;2023-03-23T14:30:19;100023.97;;;41.90;9.72
50105;BME280;47690;39.202;-77.198;2023-03-23T14:32:47;100029.63;;;41.76;9.44
50105;BME280;47690;39.202;-77.198;2023-03-23T14:35:33;100027.06;;;41.46;10.12
50105;BME280;47690;39.202;-77.198;2023-03-23T14:38:01;100040.22;;;41.42;10.20
50105;BME280;47690;39.202;-77.198;2023-03-23T14:40:31;100040.44;;;41.29;9.83
50105;BME280;47690;39.202;-77.198;2023-03-23T14:43:02;100046.84;;;41.16;10.48
50105;BME280;47690;39.202;-77.198;2023-03-23T14:45:31;100033.84;;;41.24;10.09
50105;BME280;47690;39.202;-77.198;2023-03-23T14:48:05;100029.91;;;41.08;10.75
50105;BME280;47690;39.202;-77.198;2023-03-23T14:50:48;100019.91;;;41.09;10.97
50105;BME280;47690;39.202;-77.198;2023-03-23T14:56:13;100005.44;;;41.82;10.25
50105;BME280;47690;39.202;-77.198;2023-03-23T14:58:50;100018.34;;;41.56;10.38
50105;BME280;47690;39.202;-77.198;2023-03-23T15:01:30;100014.53;;;42.04;9.89
50105;BME280;47690;39.202;-77.198;2023-03-23T15:04:14;100010.69;;;41.64;10.75
50105;BME280;47690;39.202;-77.198;2023-03-23T15:06:47;100005.19;;;42.36;9.90
50105;BME280;47690;39.202;-77.198;2023-03-23T15:09:19;100012.19;;;42.49;9.73
50105;BME280;47690;39.202;-77.198;2023-03-23T15:11:59;99994.94;;;42.67;10.00
50105;BME280;47690;39.202;-77.198;2023-03-23T15:14:45;99985.59;;;42.92;9.88
50105;BME280;47690;39.202;-77.198;2023-03-23T15:17:36;99995.25;;;43.17;9.95
50105;BME280;47690;39.202;-77.198;2023-03-23T15:20:18;99989.34;;;43.03;9.74